createdAt,value
2023-03-06T00:00:04.245Z,2.17
2023-03-06T00:02:44.786Z,2.40
2023-03-06T00:07:53.805Z,4.40
2023-03-06T00:10:28.871Z,1.90
2023-03-06T00:13:04.483Z,2.60
2023-03-06T00:15:37.169Z,2.47
2023-03-06T00:18:10.323Z,2.28
2023-03-06T00:20:44.821Z,2.00
2023-03-06T00:23:19.178Z,5.20
2023-03-06T00:25:51.806Z,1.90
2023-03-06T00:28:24.475Z,3.33
2023-03-06T00:30:57.233Z,1.30
2023-03-06T00:33:30.029Z,2.28
2023-03-06T00:36:05.733Z,2.00
2023-03-06T00:38:40.588Z,2.85
2023-03-06T00:41:14.326Z,5.00
2023-03-06T00:43:47.546Z,2.50
2023-03-06T00:46:20.472Z,1.23
2023-03-06T00:48:53.224Z,1.98
2023-03-06T00:51:27.093Z,4.68
2023-03-06T00:54:01.134Z,2.42
2023-03-06T00:56:33.845Z,0.90
2023-03-06T00:59:06.556Z,3.95
2023-03-06T01:01:41.778Z,1.17
2023-03-06T01:04:16.066Z,2.03
2023-03-06T01:06:49.980Z,1.77
2023-03-06T01:09:26.589Z,2.33
2023-03-06T01:11:59.714Z,1.27
2023-03-06T01:14:36.214Z,2.08
2023-03-06T01:17:09.028Z,1.58
2023-03-06T01:19:42.149Z,1.35
2023-03-06T01:22:14.946Z,1.98
2023-03-06T01:24:49.003Z,2.53
2023-03-06T01:27:21.641Z,0.82
2023-03-06T01:29:54.279Z,0.70
2023-03-06T01:32:27.398Z,1.10
2023-03-06T01:35:00.280Z,0.88
2023-03-06T01:40:09.152Z,2.05
2023-03-06T01:42:42.949Z,1.13
2023-03-06T01:45:52.904Z,1.13
2023-03-06T01:48:26.168Z,4.80
2023-03-06T01:50:58.932Z,0.95
2023-03-06T01:53:32.136Z,1.13
2023-03-06T01:56:07.819Z,1.27
2023-03-06T01:58:43.709Z,1.48
2023-03-06T02:01:18.512Z,1.35
2023-03-06T02:03:52.342Z,0.95
2023-03-06T02:06:25.117Z,1.38
2023-03-06T02:08:58.845Z,1.27
2023-03-06T02:11:33.395Z,1.08
2023-03-06T02:14:06.309Z,0.93
2023-03-06T02:16:39.249Z,0.75
2023-03-06T02:19:25.671Z,2.15
2023-03-06T02:21:58.595Z,1.08
2023-03-06T02:27:14.281Z,1.20
2023-03-06T02:29:47.672Z,2.67
2023-03-06T02:32:21.096Z,0.75
2023-03-06T02:34:58.448Z,0.73
2023-03-06T02:37:31.190Z,1.08
2023-03-06T02:40:12.214Z,1.13
2023-03-06T02:42:51.396Z,0.93
2023-03-06T02:45:31.304Z,1.52
2023-03-06T02:48:04.033Z,1.60
2023-03-06T02:50:36.778Z,0.70
2023-03-06T02:53:11.645Z,0.82
2023-03-06T02:55:44.401Z,1.42
2023-03-06T02:58:19.796Z,0.88
2023-03-06T03:00:53.494Z,0.77
2023-03-06T03:03:27.122Z,3.72
2023-03-06T03:06:00.033Z,0.50
2023-03-06T03:08:38.029Z,1.45
2023-03-06T03:11:10.729Z,1.05
2023-03-06T03:13:47.972Z,0.63
2023-03-06T03:16:26.138Z,1.27
2023-03-06T03:18:58.933Z,1.45
2023-03-06T03:21:32.239Z,1.30
2023-03-06T03:24:05.221Z,1.23
2023-03-06T03:29:19.954Z,2.20
2023-03-06T03:31:53.646Z,2.75
2023-03-06T03:34:29.992Z,1.55
2023-03-06T03:39:35.523Z,1.38
2023-03-06T03:42:10.068Z,1.27
2023-03-06T03:47:17.223Z,1.65
2023-03-06T03:49:50.650Z,1.73
2023-03-06T03:52:25.525Z,1.20
2023-03-06T03:54:58.499Z,1.13
2023-03-06T03:57:32.529Z,1.70
2023-03-06T04:00:11.964Z,1.73
2023-03-06T04:02:55.757Z,3.63
2023-03-06T04:05:34.944Z,1.95
2023-03-06T04:08:09.802Z,2.80
2023-03-06T04:10:46.551Z,2.22
2023-03-06T04:13:22.203Z,3.42
2023-03-06T04:15:57.588Z,3.08
2023-03-06T04:18:30.759Z,2.85
2023-03-06T04:21:08.325Z,3.17
2023-03-06T04:23:41.046Z,6.53
2023-03-06T04:26:13.914Z,3.50
2023-03-06T04:28:46.597Z,4.45
2023-03-06T04:31:21.953Z,2.78
2023-03-06T04:33:55.146Z,3.50
2023-03-06T04:36:30.566Z,2.75
2023-03-06T04:39:07.624Z,2.65
2023-03-06T04:41:41.628Z,4.57
2023-03-06T04:44:14.401Z,4.45
2023-03-06T04:46:48.575Z,7.13
2023-03-06T04:49:21.246Z,3.83
2023-03-06T04:51:54.006Z,5.75
2023-03-06T04:54:27.142Z,4.15
2023-03-06T04:56:59.979Z,4.30
2023-03-06T04:59:32.640Z,5.82
2023-03-06T05:02:06.865Z,4.22
2023-03-06T05:04:39.569Z,6.38
2023-03-06T05:07:12.670Z,5.00
2023-03-06T05:09:45.287Z,5.25
2023-03-06T05:12:20.469Z,6.28
2023-03-06T05:14:53.140Z,5.50
2023-03-06T05:17:27.491Z,5.68
2023-03-06T05:20:00.322Z,7.40
2023-03-06T05:22:33.491Z,6.55
2023-03-06T05:25:06.861Z,8.63
2023-03-06T05:27:40.034Z,7.88
2023-03-06T05:30:15.162Z,8.93
2023-03-06T05:32:49.182Z,7.30
2023-03-06T05:35:23.826Z,7.53
2023-03-06T05:37:56.912Z,6.93
2023-03-06T05:43:02.392Z,5.22
2023-03-06T05:45:35.290Z,5.25
2023-03-06T05:50:43.117Z,6.38
2023-03-06T05:53:16.091Z,7.45
2023-03-06T05:55:57.050Z,7.32
2023-03-06T05:58:31.437Z,5.90
2023-03-06T06:01:10.465Z,5.78
2023-03-06T06:03:44.970Z,6.07
2023-03-06T06:06:17.771Z,6.05
2023-03-06T06:08:50.617Z,5.85
2023-03-06T06:11:23.284Z,6.28
2023-03-06T06:16:28.703Z,6.57
2023-03-06T06:19:03.044Z,6.45
2023-03-06T06:21:35.763Z,7.90
2023-03-06T06:24:08.625Z,8.65
2023-03-06T06:26:42.349Z,6.82
2023-03-06T06:29:15.207Z,11.50
2023-03-06T06:31:47.900Z,6.78
2023-03-06T06:34:22.959Z,8.70
2023-03-06T06:36:56.002Z,8.45
2023-03-06T06:39:29.215Z,8.48
2023-03-06T06:42:28.285Z,13.07
2023-03-06T06:44:55.037Z,6.30
2023-03-06T06:47:28.222Z,11.10
2023-03-06T06:50:02.599Z,10.73
2023-03-06T06:52:35.549Z,6.72
2023-03-06T06:57:41.662Z,8.50
2023-03-06T07:00:16.874Z,8.15
2023-03-06T07:02:51.210Z,10.80
2023-03-06T07:05:25.438Z,7.25
2023-03-06T07:07:58.200Z,8.95
2023-03-06T07:10:31.298Z,11.60
2023-03-06T07:13:04.063Z,8.63
2023-03-06T07:15:36.939Z,6.80
2023-03-06T07:20:44.382Z,8.93
2023-03-06T07:23:17.383Z,6.10
2023-03-06T07:25:50.718Z,6.50
2023-03-06T07:28:23.700Z,5.35
2023-03-06T07:30:56.532Z,5.60
2023-03-06T07:33:29.740Z,7.45
2023-03-06T07:36:03.883Z,5.35
2023-03-06T07:38:36.856Z,6.05
2023-03-06T07:43:46.794Z,4.40
2023-03-06T07:46:20.364Z,6.18
2023-03-06T07:48:53.024Z,4.43
2023-03-06T07:51:27.418Z,4.10
2023-03-06T07:54:00.355Z,4.93
2023-03-06T07:59:08.141Z,6.68
2023-03-06T08:01:41.060Z,6.05
2023-03-06T08:06:48.216Z,5.15
2023-03-06T08:09:21.203Z,6.20
2023-03-06T08:11:54.093Z,8.60
2023-03-06T08:14:26.901Z,10.95
2023-03-06T08:16:59.620Z,8.18
2023-03-06T08:19:32.347Z,9.82
2023-03-06T08:24:39.876Z,9.93
2023-03-06T08:27:12.701Z,11.98
2023-03-06T08:29:45.696Z,10.50
2023-03-06T08:34:52.269Z,8.27
2023-03-06T08:37:26.437Z,9.95
2023-03-06T08:39:59.483Z,8.20
2023-03-06T08:45:05.765Z,9.40
2023-03-06T08:47:38.570Z,8.90
2023-03-06T08:50:12.719Z,10.32
2023-03-06T08:52:46.855Z,12.50
2023-03-06T08:55:19.831Z,13.13
2023-03-06T09:00:28.367Z,14.07
2023-03-06T09:03:01.785Z,11.57
2023-03-06T09:05:34.811Z,10.65
